sensor_id;sensor_type;location;lat;lon;timestamp;P1;durP1;ratioP1;P2;durP2;ratioP2
64186;SDS011;50491;39.484;-8.540;2023-07-31T00:01:03;4.82;;;2.00;;
64186;SDS011;50491;39.484;-8.540;2023-07-31T00:03:04;14.80;;;2.28;;
64186;SDS011;50491;39.484;-8.540;2023-07-31T00:05:06;8.93;;;2.03;;
64186;SDS011;50491;39.484;-8.540;2023-07-31T00:07:06;4.93;;;2.28;;
64186;SDS011;50491;39.484;-8.540;2023-07-31T00:09:07;6.15;;;2.40;;
64186;SDS011;50491;39.484;-8.540;2023-07-31T00:11:26;5.07;;;1.80;;
64186;SDS011;50491;39.484;-8.540;2023-07-31T00:13:46;4.00;;;2.25;;
64186;SDS011;50491;39.484;-8.540;2023-07-31T00:16:10;1.73;;;1.57;;
64186;SDS011;50491;39.484;-8.540;2023-07-31T00:18:10;2.58;;;1.88;;
64186;SDS011;50491;39.484;-8.540;2023-07-31T00:20:11;5.97;;;1.80;;
64186;SDS011;50491;39.484;-8.540;2023-07-31T00:22:30;5.22;;;1.98;;
64186;SDS011;50491;39.484;-8.540;2023-07-31T00:24:30;4.82;;;1.80;;
64186;SDS011;50491;39.484;-8.540;2023-07-31T00:26:31;3.83;;;1.90;;
64186;SDS011;50491;39.484;-8.540;2023-07-31T00:28:50;5.03;;;2.72;;
64186;SDS011;50491;39.484;-8.540;2023-07-31T00:30:56;3.92;;;2.38;;
64186;SDS011;50491;39.484;-8.540;2023-07-31T00:33:15;2.53;;;1.80;;
64186;SDS011;50491;39.484;-8.540;2023-07-31T00:35:16;4.78;;;2.00;;
64186;SDS011;50491;39.484;-8.540;2023-07-31T00:37:35;4.50;;;2.90;;
64186;SDS011;50491;39.484;-8.540;2023-07-31T00:39:36;6.50;;;2.10;;
64186;SDS011;50491;39.484;-8.540;2023-07-31T00:41:37;7.07;;;2.08;;
64186;SDS011;50491;39.484;-8.540;2023-07-31T00:43:56;5.45;;;2.47;;
64186;SDS011;50491;39.484;-8.540;2023-07-31T00:46:16;3.58;;;1.88;;
64186;SDS011;50491;39.484;-8.540;2023-07-31T00:48:36;4.30;;;2.20;;
64186;SDS011;50491;39.484;-8.540;2023-07-31T00:50:38;4.72;;;1.95;;
64186;SDS011;50491;39.484;-8.540;2023-07-31T00:52:39;5.00;;;2.35;;
64186;SDS011;50491;39.484;-8.540;2023-07-31T00:55:00;2.55;;;1.85;;
64186;SDS011;50491;39.484;-8.540;2023-07-31T00:57:18;6.30;;;2.50;;
64186;SDS011;50491;39.484;-8.540;2023-07-31T00:59:19;4.00;;;2.22;;
64186;SDS011;50491;39.484;-8.540;2023-07-31T01:01:38;3.95;;;2.13;;
64186;SDS011;50491;39.484;-8.540;2023-07-31T01:03:58;5.43;;;2.38;;
64186;SDS011;50491;39.484;-8.540;2023-07-31T01:10:49;3.10;;;2.17;;
64186;SDS011;50491;39.484;-8.540;2023-07-31T01:12:53;6.43;;;2.20;;
64186;SDS011;50491;39.484;-8.540;2023-07-31T01:15:13;2.97;;;1.70;;
64186;SDS011;50491;39.484;-8.540;2023-07-31T01:17:15;5.95;;;1.95;;
64186;SDS011;50491;39.484;-8.540;2023-07-31T01:19:41;5.97;;;2.38;;
64186;SDS011;50491;39.484;-8.540;2023-07-31T01:26:56;4.63;;;2.05;;
64186;SDS011;50491;39.484;-8.540;2023-07-31T01:29:02;4.65;;;2.38;;
64186;SDS011;50491;39.484;-8.540;2023-07-31T01:31:07;4.85;;;2.30;;
64186;SDS011;50491;39.484;-8.540;2023-07-31T01:33:09;3.88;;;2.15;;
64186;SDS011;50491;39.484;-8.540;2023-07-31T01:35:10;6.53;;;1.92;;
64186;SDS011;50491;39.484;-8.540;2023-07-31T01:37:12;6.72;;;2.42;;
64186;SDS011;50491;39.484;-8.540;2023-07-31T01:39:12;3.97;;;2.20;;
64186;SDS011;50491;39.484;-8.540;2023-07-31T01:41:13;3.65;;;2.42;;
64186;SDS011;50491;39.484;-8.540;2023-07-31T01:43:36;8.50;;;3.20;;
64186;SDS011;50491;39.484;-8.540;2023-07-31T01:45:55;6.30;;;1.98;;
64186;SDS011;50491;39.484;-8.540;2023-07-31T01:53:41;3.88;;;2.53;;
64186;SDS011;50491;39.484;-8.540;2023-07-31T01:56:19;11.45;;;2.45;;
64186;SDS011;50491;39.484;-8.540;2023-07-31T01:58:20;5.35;;;2.35;;
64186;SDS011;50491;39.484;-8.540;2023-07-31T02:02:59;3.88;;;2.03;;
64186;SDS011;50491;39.484;-8.540;2023-07-31T02:05:00;5.43;;;2.60;;
64186;SDS011;50491;39.484;-8.540;2023-07-31T02:07:00;4.25;;;2.47;;
64186;SDS011;50491;39.484;-8.540;2023-07-31T02:16:18;3.65;;;2.22;;
64186;SDS011;50491;39.484;-8.540;2023-07-31T02:18:19;2.53;;;1.70;;
64186;SDS011;50491;39.484;-8.540;2023-07-31T02:20:38;3.80;;;2.08;;
64186;SDS011;50491;39.484;-8.540;2023-07-31T02:22:39;6.60;;;2.35;;
64186;SDS011;50491;39.484;-8.540;2023-07-31T02:24:39;6.20;;;2.42;;
64186;SDS011;50491;39.484;-8.540;2023-07-31T02:26:58;8.02;;;2.53;;
64186;SDS011;50491;39.484;-8.540;2023-07-31T02:32:32;3.78;;;2.45;;
64186;SDS011;50491;39.484;-8.540;2023-07-31T02:34:33;8.43;;;3.03;;
64186;SDS011;50491;39.484;-8.540;2023-07-31T02:36:52;3.75;;;2.35;;
64186;SDS011;50491;39.484;-8.540;2023-07-31T02:43:56;5.10;;;2.10;;
64186;SDS011;50491;39.484;-8.540;2023-07-31T02:45:59;2.70;;;1.73;;
64186;SDS011;50491;39.484;-8.540;2023-07-31T02:48:00;6.05;;;2.28;;
64186;SDS011;50491;39.484;-8.540;2023-07-31T02:50:04;4.20;;;2.53;;
64186;SDS011;50491;39.484;-8.540;2023-07-31T02:52:05;3.97;;;2.33;;
64186;SDS011;50491;39.484;-8.540;2023-07-31T02:54:25;5.38;;;2.80;;
64186;SDS011;50491;39.484;-8.540;2023-07-31T03:12:52;2.88;;;2.00;;
64186;SDS011;50491;39.484;-8.540;2023-07-31T03:14:53;6.47;;;2.65;;
64186;SDS011;50491;39.484;-8.540;2023-07-31T03:17:12;2.65;;;2.08;;
64186;SDS011;50491;39.484;-8.540;2023-07-31T03:19:12;5.38;;;2.53;;
64186;SDS011;50491;39.484;-8.540;2023-07-31T03:28:50;6.93;;;2.10;;
64186;SDS011;50491;39.484;-8.540;2023-07-31T03:30:51;4.88;;;2.47;;
64186;SDS011;50491;39.484;-8.540;2023-07-31T03:33:10;5.32;;;2.42;;
64186;SDS011;50491;39.484;-8.540;2023-07-31T03:35:29;6.20;;;2.00;;
64186;SDS011;50491;39.484;-8.540;2023-07-31T03:42:40;6.25;;;2.40;;
64186;SDS011;50491;39.484;-8.540;2023-07-31T03:44:41;4.95;;;3.20;;
64186;SDS011;50491;39.484;-8.540;2023-07-31T03:46:44;9.07;;;2.78;;
64186;SDS011;50491;39.484;-8.540;2023-07-31T03:49:03;5.65;;;2.17;;
64186;SDS011;50491;39.484;-8.540;2023-07-31T03:51:22;5.85;;;3.05;;
64186;SDS011;50491;39.484;-8.540;2023-07-31T03:53:22;2.92;;;2.42;;
64186;SDS011;50491;39.484;-8.540;2023-07-31T03:55:23;3.83;;;2.13;;
64186;SDS011;50491;39.484;-8.540;2023-07-31T03:57:23;6.93;;;2.72;;
64186;SDS011;50491;39.484;-8.540;2023-07-31T03:59:43;9.60;;;2.75;;
64186;SDS011;50491;39.484;-8.540;2023-07-31T04:01:43;5.80;;;1.83;;
64186;SDS011;50491;39.484;-8.540;2023-07-31T04:03:44;4.45;;;2.50;;
64186;SDS011;50491;39.484;-8.540;2023-07-31T04:05:45;7.07;;;2.72;;
64186;SDS011;50491;39.484;-8.540;2023-07-31T04:08:04;4.13;;;2.40;;
64186;SDS011;50491;39.484;-8.540;2023-07-31T04:10:23;5.60;;;2.45;;
64186;SDS011;50491;39.484;-8.540;2023-07-31T04:12:42;2.47;;;1.98;;
64186;SDS011;50491;39.484;-8.540;2023-07-31T04:14:43;6.97;;;3.33;;
64186;SDS011;50491;39.484;-8.540;2023-07-31T04:17:02;9.23;;;2.47;;
64186;SDS011;50491;39.484;-8.540;2023-07-31T04:19:04;2.85;;;1.98;;
64186;SDS011;50491;39.484;-8.540;2023-07-31T04:21:04;4.72;;;2.55;;
64186;SDS011;50491;39.484;-8.540;2023-07-31T04:23:05;5.35;;;2.28;;
64186;SDS011;50491;39.484;-8.540;2023-07-31T04:25:06;5.32;;;2.28;;
64186;SDS011;50491;39.484;-8.540;2023-07-31T04:27:25;6.22;;;2.33;;
64186;SDS011;50491;39.484;-8.540;2023-07-31T04:29:26;7.07;;;2.15;;
64186;SDS011;50491;39.484;-8.540;2023-07-31T04:31:26;7.38;;;2.38;;
64186;SDS011;50491;39.484;-8.540;2023-07-31T04:33:46;6.85;;;2.20;;
64186;SDS011;50491;39.484;-8.540;2023-07-31T04:36:05;3.50;;;1.98;;
64186;SDS011;50491;39.484;-8.540;2023-07-31T04:38:24;3.60;;;1.85;;
64186;SDS011;50491;39.484;-8.540;2023-07-31T04:40:24;6.05;;;1.95;;
64186;SDS011;50491;39.484;-8.540;2023-07-31T04:42:25;7.25;;;2.05;;
64186;SDS011;50491;39.484;-8.540;2023-07-31T04:53:10;3.05;;;2.03;;
64186;SDS011;50491;39.484;-8.540;2023-07-31T04:55:29;2.40;;;2.10;;
64186;SDS011;50491;39.484;-8.540;2023-07-31T04:57:48;5.45;;;2.25;;
64186;SDS011;50491;39.484;-8.540;2023-07-31T05:00:07;5.00;;;2.00;;
64186;SDS011;50491;39.484;-8.540;2023-07-31T05:02:08;5.80;;;2.50;;
64186;SDS011;50491;39.484;-8.540;2023-07-31T05:04:09;6.53;;;2.92;;
64186;SDS011;50491;39.484;-8.540;2023-07-31T05:06:09;4.70;;;2.35;;
64186;SDS011;50491;39.484;-8.540;2023-07-31T05:08:15;4.32;;;2.40;;
64186;SDS011;50491;39.484;-8.540;2023-07-31T05:10:17;2.80;;;2.05;;
64186;SDS011;50491;39.484;-8.540;2023-07-31T05:12:18;6.53;;;2.28;;
64186;SDS011;50491;39.484;-8.540;2023-07-31T05:16:57;6.05;;;2.75;;
64186;SDS011;50491;39.484;-8.540;2023-07-31T05:18:58;3.08;;;2.17;;
64186;SDS011;50491;39.484;-8.540;2023-07-31T05:21:18;5.72;;;2.55;;
64186;SDS011;50491;39.484;-8.540;2023-07-31T05:23:37;4.20;;;2.40;;
64186;SDS011;50491;39.484;-8.540;2023-07-31T05:26:03;5.95;;;2.53;;
64186;SDS011;50491;39.484;-8.540;2023-07-31T05:28:11;2.65;;;2.28;;
64186;SDS011;50491;39.484;-8.540;2023-07-31T05:33:09;6.32;;;2.20;;
64186;SDS011;50491;39.484;-8.540;2023-07-31T05:35:09;9.52;;;2.63;;
64186;SDS011;50491;39.484;-8.540;2023-07-31T05:37:11;4.00;;;2.35;;
64186;SDS011;50491;39.484;-8.540;2023-07-31T05:39:12;4.97;;;2.40;;
64186;SDS011;50491;39.484;-8.540;2023-07-31T05:41:31;4.07;;;2.30;;
64186;SDS011;50491;39.484;-8.540;2023-07-31T05:46:18;4.30;;;2.05;;
64186;SDS011;50491;39.484;-8.540;2023-07-31T05:48:19;3.97;;;2.35;;
64186;SDS011;50491;39.484;-8.540;2023-07-31T05:50:20;4.63;;;2.47;;
64186;SDS011;50491;39.484;-8.540;2023-07-31T05:57:55;4.43;;;2.70;;
64186;SDS011;50491;39.484;-8.540;2023-07-31T06:02:33;6.63;;;2.72;;
64186;SDS011;50491;39.484;-8.540;2023-07-31T06:04:55;5.70;;;2.80;;
64186;SDS011;50491;39.484;-8.540;2023-07-31T06:09:52;5.90;;;3.35;;
64186;SDS011;50491;39.484;-8.540;2023-07-31T06:11:54;6.05;;;2.53;;
64186;SDS011;50491;39.484;-8.540;2023-07-31T06:13:55;8.98;;;3.08;;
64186;SDS011;50491;39.484;-8.540;2023-07-31T06:15:56;7.70;;;2.80;;
64186;SDS011;50491;39.484;-8.540;2023-07-31T06:17:57;3.67;;;2.38;;
64186;SDS011;50491;39.484;-8.540;2023-07-31T06:20:29;3.33;;;2.67;;
64186;SDS011;50491;39.484;-8.540;2023-07-31T06:22:29;4.82;;;2.60;;
64186;SDS011;50491;39.484;-8.540;2023-07-31T06:24:30;8.07;;;2.67;;
64186;SDS011;50491;39.484;-8.540;2023-07-31T06:29:34;9.80;;;2.55;;
64186;SDS011;50491;39.484;-8.540;2023-07-31T06:31:35;6.00;;;3.38;;
64186;SDS011;50491;39.484;-8.540;2023-07-31T06:34:01;5.28;;;2.83;;
64186;SDS011;50491;39.484;-8.540;2023-07-31T06:38:46;4.80;;;2.63;;
64186;SDS011;50491;39.484;-8.540;2023-07-31T06:40:52;6.53;;;2.67;;
64186;SDS011;50491;39.484;-8.540;2023-07-31T06:42:58;8.38;;;3.25;;
64186;SDS011;50491;39.484;-8.540;2023-07-31T06:44:59;8.15;;;2.40;;
64186;SDS011;50491;39.484;-8.540;2023-07-31T06:47:00;6.95;;;2.80;;
64186;SDS011;50491;39.484;-8.540;2023-07-31T06:49:07;7.93;;;2.38;;
64186;SDS011;50491;39.484;-8.540;2023-07-31T06:51:27;5.65;;;2.95;;
64186;SDS011;50491;39.484;-8.540;2023-07-31T06:53:47;9.88;;;3.45;;
64186;SDS011;50491;39.484;-8.540;2023-07-31T06:56:06;3.63;;;2.67;;
64186;SDS011;50491;39.484;-8.540;2023-07-31T06:58:25;4.82;;;2.75;;
64186;SDS011;50491;39.484;-8.540;2023-07-31T07:00:27;6.35;;;2.97;;
64186;SDS011;50491;39.484;-8.540;2023-07-31T07:02:27;5.22;;;2.53;;
64186;SDS011;50491;39.484;-8.540;2023-07-31T07:04:28;3.95;;;2.92;;
64186;SDS011;50491;39.484;-8.540;2023-07-31T07:06:29;9.27;;;3.15;;
64186;SDS011;50491;39.484;-8.540;2023-07-31T07:08:48;11.43;;;3.92;;
64186;SDS011;50491;39.484;-8.540;2023-07-31T07:10:49;7.25;;;3.22;;
64186;SDS011;50491;39.484;-8.540;2023-07-31T07:12:50;5.68;;;2.80;;
64186;SDS011;50491;39.484;-8.540;2023-07-31T07:15:16;3.85;;;2.72;;
64186;SDS011;50491;39.484;-8.540;2023-07-31T07:17:16;7.65;;;3.55;;
64186;SDS011;50491;39.484;-8.540;2023-07-31T07:19:36;5.75;;;3.17;;
64186;SDS011;50491;39.484;-8.540;2023-07-31T07:21:59;8.35;;;2.70;;
64186;SDS011;50491;39.484;-8.540;2023-07-31T07:24:02;6.07;;;3.08;;
64186;SDS011;50491;39.484;-8.540;2023-07-31T07:26:02;8.23;;;3.25;;
64186;SDS011;50491;39.484;-8.540;2023-07-31T07:28:22;5.25;;;2.40;;
64186;SDS011;50491;39.484;-8.540;2023-07-31T07:30:42;4.68;;;2.90;;
64186;SDS011;50491;39.484;-8.540;2023-07-31T07:32:43;5.07;;;2.42;;
64186;SDS011;50491;39.484;-8.540;2023-07-31T07:34:43;4.95;;;3.13;;
64186;SDS011;50491;39.484;-8.540;2023-07-31T07:37:02;4.60;;;3.00;;
64186;SDS011;50491;39.484;-8.540;2023-07-31T07:39:03;6.05;;;3.08;;
64186;SDS011;50491;39.484;-8.540;2023-07-31T07:41:04;5.60;;;2.47;;
64186;SDS011;50491;39.484;-8.540;2023-07-31T07:43:05;6.95;;;2.90;;
64186;SDS011;50491;39.484;-8.540;2023-07-31T07:45:05;3.90;;;2.60;;
64186;SDS011;50491;39.484;-8.540;2023-07-31T07:47:07;5.72;;;2.63;;
64186;SDS011;50491;39.484;-8.540;2023-07-31T07:49:07;4.38;;;2.42;;
64186;SDS011;50491;39.484;-8.540;2023-07-31T07:51:08;6.05;;;3.03;;
64186;SDS011;50491;39.484;-8.540;2023-07-31T07:53:27;4.22;;;2.40;;
64186;SDS011;50491;39.484;-8.540;2023-07-31T07:55:46;8.65;;;2.97;;
64186;SDS011;50491;39.484;-8.540;2023-07-31T07:58:05;6.35;;;2.92;;
64186;SDS011;50491;39.484;-8.540;2023-07-31T08:00:06;3.53;;;2.65;;
64186;SDS011;50491;39.484;-8.540;2023-07-31T08:02:14;6.20;;;2.35;;
64186;SDS011;50491;39.484;-8.540;2023-07-31T08:04:15;3.72;;;2.25;;
64186;SDS011;50491;39.484;-8.540;2023-07-31T08:06:16;6.05;;;2.85;;
64186;SDS011;50491;39.484;-8.540;2023-07-31T08:08:17;5.43;;;2.40;;
64186;SDS011;50491;39.484;-8.540;2023-07-31T08:10:17;6.22;;;2.28;;
64186;SDS011;50491;39.484;-8.540;2023-07-31T08:12:18;4.90;;;2.20;;
64186;SDS011;50491;39.484;-8.540;2023-07-31T08:14:19;5.95;;;1.80;;
64186;SDS011;50491;39.484;-8.540;2023-07-31T08:16:38;5.93;;;2.55;;
64186;SDS011;50491;39.484;-8.540;2023-07-31T08:18:39;10.20;;;2.30;;
64186;SDS011;50491;39.484;-8.540;2023-07-31T08:20:59;3.33;;;2.00;;
64186;SDS011;50491;39.484;-8.540;2023-07-31T08:22:59;4.65;;;1.98;;
64186;SDS011;50491;39.484;-8.540;2023-07-31T08:25:18;6.93;;;2.85;;
64186;SDS011;50491;39.484;-8.540;2023-07-31T08:27:19;5.75;;;2.22;;
64186;SDS011;50491;39.484;-8.540;2023-07-31T08:29:20;4.03;;;2.35;;
64186;SDS011;50491;39.484;-8.540;2023-07-31T08:31:39;6.18;;;2.38;;
64186;SDS011;50491;39.484;-8.540;2023-07-31T08:33:40;4.72;;;2.05;;
64186;SDS011;50491;39.484;-8.540;2023-07-31T08:35:40;3.88;;;2.03;;
64186;SDS011;50491;39.484;-8.540;2023-07-31T08:37:59;8.25;;;2.88;;
64186;SDS011;50491;39.484;-8.540;2023-07-31T08:40:00;3.97;;;2.08;;
64186;SDS011;50491;39.484;-8.540;2023-07-31T08:42:00;5.80;;;2.10;;
64186;SDS011;50491;39.484;-8.540;2023-07-31T08:46:39;7.00;;;1.98;;
64186;SDS011;50491;39.484;-8.540;2023-07-31T08:48:41;7.78;;;2.40;;
64186;SDS011;50491;39.484;-8.540;2023-07-31T08:50:43;5.78;;;1.65;;
64186;SDS011;50491;39.484;-8.540;2023-07-31T08:52:44;3.47;;;1.98;;
64186;SDS011;50491;39.484;-8.540;2023-07-31T08:54:45;3.00;;;1.67;;
64186;SDS011;50491;39.484;-8.540;2023-07-31T09:02:05;5.18;;;1.98;;
64186;SDS011;50491;39.484;-8.540;2023-07-31T09:04:26;5.88;;;2.35;;
64186;SDS011;50491;39.484;-8.540;2023-07-31T09:06:28;14.95;;;2.40;;
64186;SDS011;50491;39.484;-8.540;2023-07-31T09:08:30;5.88;;;1.95;;
64186;SDS011;50491;39.484;-8.540;2023-07-31T09:10:51;11.27;;;2.55;;
64186;SDS011;50491;39.484;-8.540;2023-07-31T09:13:10;3.15;;;1.75;;
64186;SDS011;50491;39.484;-8.540;2023-07-31T09:15:29;8.10;;;2.10;;
64186;SDS011;50491;39.484;-8.540;2023-07-31T09:17:50;4.35;;;1.90;;
64186;SDS011;50491;39.484;-8.540;2023-07-31T09:22:30;6.57;;;2.30;;
64186;SDS011;50491;39.484;-8.540;2023-07-31T09:24:33;5.97;;;2.03;;
64186;SDS011;50491;39.484;-8.540;2023-07-31T09:26:35;3.35;;;1.60;;
64186;SDS011;50491;39.484;-8.540;2023-07-31T09:28:36;25.45;;;2.65;;
64186;SDS011;50491;39.484;-8.540;2023-07-31T09:30:56;9.45;;;2.83;;
64186;SDS011;50491;39.484;-8.540;2023-07-31T09:33:03;7.32;;;1.80;;
64186;SDS011;50491;39.484;-8.540;2023-07-31T09:38:04;10.98;;;1.90;;
64186;SDS011;50491;39.484;-8.540;2023-07-31T09:40:06;4.80;;;2.22;;
64186;SDS011;50491;39.484;-8.540;2023-07-31T09:42:07;4.32;;;1.65;;
64186;SDS011;50491;39.484;-8.540;2023-07-31T09:44:08;4.03;;;1.50;;
64186;SDS011;50491;39.484;-8.540;2023-07-31T09:48:47;2.63;;;1.63;;
64186;SDS011;50491;39.484;-8.540;2023-07-31T09:51:28;4.40;;;1.85;;
64186;SDS011;50491;39.484;-8.540;2023-07-31T09:53:31;4.50;;;1.38;;
64186;SDS011;50491;39.484;-8.540;2023-07-31T09:55:50;6.18;;;2.15;;
64186;SDS011;50491;39.484;-8.540;2023-07-31T09:57:51;5.10;;;1.40;;
64186;SDS011;50491;39.484;-8.540;2023-07-31T09:59:52;5.00;;;1.83;;
64186;SDS011;50491;39.484;-8.540;2023-07-31T10:02:13;7.22;;;1.17;;
64186;SDS011;50491;39.484;-8.540;2023-07-31T10:06:35;1.98;;;1.27;;
64186;SDS011;50491;39.484;-8.540;2023-07-31T10:08:37;3.80;;;1.63;;
64186;SDS011;50491;39.484;-8.540;2023-07-31T10:10:41;1.67;;;1.10;;
64186;SDS011;50491;39.484;-8.540;2023-07-31T10:13:01;2.70;;;1.50;;
64186;SDS011;50491;39.484;-8.540;2023-07-31T10:15:21;3.03;;;1.50;;
64186;SDS011;50491;39.484;-8.540;2023-07-31T10:17:22;6.05;;;1.50;;
64186;SDS011;50491;39.484;-8.540;2023-07-31T10:19:42;3.22;;;1.10;;
64186;SDS011;50491;39.484;-8.540;2023-07-31T10:22:02;2.95;;;1.20;;
64186;SDS011;50491;39.484;-8.540;2023-07-31T10:24:05;2.80;;;1.20;;
64186;SDS011;50491;39.484;-8.540;2023-07-31T10:26:25;3.60;;;1.17;;
64186;SDS011;50491;39.484;-8.540;2023-07-31T10:28:45;4.40;;;1.38;;
64186;SDS011;50491;39.484;-8.540;2023-07-31T10:30:46;2.63;;;0.95;;
64186;SDS011;50491;39.484;-8.540;2023-07-31T10:32:48;2.75;;;1.00;;
64186;SDS011;50491;39.484;-8.540;2023-07-31T10:34:51;3.90;;;1.27;;
64186;SDS011;50491;39.484;-8.540;2023-07-31T10:37:19;10.73;;;1.30;;
64186;SDS011;50491;39.484;-8.540;2023-07-31T10:39:34;3.50;;;1.17;;
64186;SDS011;50491;39.484;-8.540;2023-07-31T10:41:42;6.45;;;1.20;;
64186;SDS011;50491;39.484;-8.540;2023-07-31T10:44:01;2.75;;;1.40;;
64186;SDS011;50491;39.484;-8.540;2023-07-31T10:46:06;2.80;;;1.30;;
64186;SDS011;50491;39.484;-8.540;2023-07-31T10:48:13;4.20;;;1.10;;
64186;SDS011;50491;39.484;-8.540;2023-07-31T10:50:17;5.85;;;1.50;;
64186;SDS011;50491;39.484;-8.540;2023-07-31T10:52:20;3.72;;;1.60;;
64186;SDS011;50491;39.484;-8.540;2023-07-31T10:56:24;7.15;;;1.05;;
64186;SDS011;50491;39.484;-8.540;2023-07-31T10:58:25;1.60;;;0.90;;
64186;SDS011;50491;39.484;-8.540;2023-07-31T11:00:27;2.72;;;1.20;;
64186;SDS011;50491;39.484;-8.540;2023-07-31T11:02:29;2.55;;;1.25;;
64186;SDS011;50491;39.484;-8.540;2023-07-31T11:04:35;3.10;;;1.50;;
64186;SDS011;50491;39.484;-8.540;2023-07-31T11:06:36;2.63;;;1.15;;
64186;SDS011;50491;39.484;-8.540;2023-07-31T11:08:55;17.13;;;1.25;;
64186;SDS011;50491;39.484;-8.540;2023-07-31T11:11:15;2.10;;;0.95;;
64186;SDS011;50491;39.484;-8.540;2023-07-31T11:13:17;3.28;;;1.08;;
64186;SDS011;50491;39.484;-8.540;2023-07-31T11:15:17;2.10;;;1.20;;
64186;SDS011;50491;39.484;-8.540;2023-07-31T11:17:19;3.42;;;1.00;;
64186;SDS011;50491;39.484;-8.540;2023-07-31T11:19:23;1.67;;;1.02;;
64186;SDS011;50491;39.484;-8.540;2023-07-31T11:21:25;3.92;;;1.02;;
64186;SDS011;50491;39.484;-8.540;2023-07-31T11:23:26;2.25;;;1.20;;
64186;SDS011;50491;39.484;-8.540;2023-07-31T11:25:26;4.22;;;1.02;;
64186;SDS011;50491;39.484;-8.540;2023-07-31T11:27:29;4.13;;;1.75;;
64186;SDS011;50491;39.484;-8.540;2023-07-31T11:29:50;1.48;;;0.90;;
64186;SDS011;50491;39.484;-8.540;2023-07-31T11:31:51;5.63;;;1.42;;
64186;SDS011;50491;39.484;-8.540;2023-07-31T11:34:10;6.70;;;1.67;;
64186;SDS011;50491;39.484;-8.540;2023-07-31T11:36:14;3.53;;;1.30;;
64186;SDS011;50491;39.484;-8.540;2023-07-31T11:40:43;1.75;;;0.85;;
64186;SDS011;50491;39.484;-8.540;2023-07-31T11:43:04;2.35;;;1.23;;
64186;SDS011;50491;39.484;-8.540;2023-07-31T11:45:26;4.32;;;1.25;;
64186;SDS011;50491;39.484;-8.540;2023-07-31T11:50:24;2.30;;;1.30;;
64186;SDS011;50491;39.484;-8.540;2023-07-31T11:52:46;4.13;;;1.40;;
64186;SDS011;50491;39.484;-8.540;2023-07-31T12:09:00;4.65;;;1.30;;
64186;SDS011;50491;39.484;-8.540;2023-07-31T12:11:04;4.65;;;1.50;;
64186;SDS011;50491;39.484;-8.540;2023-07-31T12:13:12;4.88;;;1.58;;
64186;SDS011;50491;39.484;-8.540;2023-07-31T12:15:45;1.73;;;1.45;;
64186;SDS011;50491;39.484;-8.540;2023-07-31T12:18:04;2.42;;;1.40;;
64186;SDS011;50491;39.484;-8.540;2023-07-31T12:23:19;2.28;;;1.25;;
64186;SDS011;50491;39.484;-8.540;2023-07-31T12:25:46;1.77;;;1.33;;
64186;SDS011;50491;39.484;-8.540;2023-07-31T12:27:47;2.08;;;1.42;;
64186;SDS011;50491;39.484;-8.540;2023-07-31T12:29:47;6.38;;;1.20;;
64186;SDS011;50491;39.484;-8.540;2023-07-31T12:31:48;5.18;;;1.45;;
64186;SDS011;50491;39.484;-8.540;2023-07-31T12:34:17;2.33;;;1.60;;
64186;SDS011;50491;39.484;-8.540;2023-07-31T12:36:23;3.10;;;1.67;;
64186;SDS011;50491;39.484;-8.540;2023-07-31T12:38:25;2.00;;;0.90;;
64186;SDS011;50491;39.484;-8.540;2023-07-31T12:40:26;4.32;;;1.65;;
64186;SDS011;50491;39.484;-8.540;2023-07-31T12:42:26;3.92;;;1.60;;
64186;SDS011;50491;39.484;-8.540;2023-07-31T12:44:27;4.35;;;1.60;;
64186;SDS011;50491;39.484;-8.540;2023-07-31T12:46:46;4.05;;;1.70;;
64186;SDS011;50491;39.484;-8.540;2023-07-31T12:49:05;6.53;;;2.05;;
64186;SDS011;50491;39.484;-8.540;2023-07-31T12:51:06;2.85;;;1.10;;
64186;SDS011;50491;39.484;-8.540;2023-07-31T12:53:09;6.07;;;1.55;;
64186;SDS011;50491;39.484;-8.540;2023-07-31T12:55:10;2.53;;;1.05;;
64186;SDS011;50491;39.484;-8.540;2023-07-31T12:57:11;4.03;;;1.42;;
64186;SDS011;50491;39.484;-8.540;2023-07-31T12:59:30;2.17;;;1.15;;
64186;SDS011;50491;39.484;-8.540;2023-07-31T13:01:49;3.78;;;1.40;;
64186;SDS011;50491;39.484;-8.540;2023-07-31T13:03:49;3.92;;;1.10;;
64186;SDS011;50491;39.484;-8.540;2023-07-31T13:05:50;8.88;;;1.17;;
64186;SDS011;50491;39.484;-8.540;2023-07-31T13:07:52;3.08;;;1.27;;
64186;SDS011;50491;39.484;-8.540;2023-07-31T13:10:11;6.88;;;1.35;;
64186;SDS011;50491;39.484;-8.540;2023-07-31T13:12:30;2.15;;;0.95;;
64186;SDS011;50491;39.484;-8.540;2023-07-31T13:14:31;5.05;;;1.30;;
64186;SDS011;50491;39.484;-8.540;2023-07-31T13:16:32;4.40;;;1.00;;
64186;SDS011;50491;39.484;-8.540;2023-07-31T13:18:51;4.25;;;1.45;;
64186;SDS011;50491;39.484;-8.540;2023-07-31T13:21:12;2.20;;;1.08;;
64186;SDS011;50491;39.484;-8.540;2023-07-31T13:23:31;6.20;;;0.90;;
64186;SDS011;50491;39.484;-8.540;2023-07-31T13:25:50;2.28;;;0.90;;
64186;SDS011;50491;39.484;-8.540;2023-07-31T13:27:50;2.45;;;1.00;;
64186;SDS011;50491;39.484;-8.540;2023-07-31T13:30:09;2.92;;;1.45;;
64186;SDS011;50491;39.484;-8.540;2023-07-31T13:32:29;7.43;;;0.80;;
64186;SDS011;50491;39.484;-8.540;2023-07-31T13:34:29;3.97;;;1.23;;
64186;SDS011;50491;39.484;-8.540;2023-07-31T13:36:30;2.75;;;0.93;;
64186;SDS011;50491;39.484;-8.540;2023-07-31T13:38:49;1.60;;;0.80;;
64186;SDS011;50491;39.484;-8.540;2023-07-31T13:40:49;3.20;;;1.00;;
64186;SDS011;50491;39.484;-8.540;2023-07-31T13:43:09;2.42;;;0.90;;
64186;SDS011;50491;39.484;-8.540;2023-07-31T13:45:10;5.47;;;1.10;;
64186;SDS011;50491;39.484;-8.540;2023-07-31T13:47:11;2.45;;;0.80;;
64186;SDS011;50491;39.484;-8.540;2023-07-31T13:49:11;2.25;;;0.70;;
64186;SDS011;50491;39.484;-8.540;2023-07-31T13:51:30;1.48;;;0.80;;
64186;SDS011;50491;39.484;-8.540;2023-07-31T13:53:31;8.07;;;2.10;;
64186;SDS011;50491;39.484;-8.540;2023-07-31T13:55:32;1.58;;;0.70;;
64186;SDS011;50491;39.484;-8.540;2023-07-31T13:57:51;0.88;;;0.60;;
64186;SDS011;50491;39.484;-8.540;2023-07-31T14:00:12;2.60;;;0.85;;
64186;SDS011;50491;39.484;-8.540;2023-07-31T14:02:32;9.20;;;1.05;;
64186;SDS011;50491;39.484;-8.540;2023-07-31T14:04:32;3.50;;;0.77;;
64186;SDS011;50491;39.484;-8.540;2023-07-31T14:06:33;4.05;;;1.05;;
64186;SDS011;50491;39.484;-8.540;2023-07-31T14:08:34;1.70;;;0.90;;
64186;SDS011;50491;39.484;-8.540;2023-07-31T14:10:53;2.47;;;1.02;;
64186;SDS011;50491;39.484;-8.540;2023-07-31T14:13:12;9.20;;;1.25;;
64186;SDS011;50491;39.484;-8.540;2023-07-31T14:15:31;3.13;;;1.05;;
64186;SDS011;50491;39.484;-8.540;2023-07-31T14:17:32;9.38;;;1.23;;
64186;SDS011;50491;39.484;-8.540;2023-07-31T14:19:51;4.22;;;0.90;;
64186;SDS011;50491;39.484;-8.540;2023-07-31T14:21:52;2.17;;;0.80;;
64186;SDS011;50491;39.484;-8.540;2023-07-31T14:23:53;3.15;;;1.08;;
64186;SDS011;50491;39.484;-8.540;2023-07-31T14:25:53;2.22;;;0.90;;
64186;SDS011;50491;39.484;-8.540;2023-07-31T14:28:12;2.20;;;0.60;;
64186;SDS011;50491;39.484;-8.540;2023-07-31T14:30:13;5.57;;;1.10;;
64186;SDS011;50491;39.484;-8.540;2023-07-31T14:32:14;1.95;;;0.88;;
64186;SDS011;50491;39.484;-8.540;2023-07-31T14:34:33;2.78;;;1.00;;
64186;SDS011;50491;39.484;-8.540;2023-07-31T14:36:33;2.35;;;0.85;;
64186;SDS011;50491;39.484;-8.540;2023-07-31T14:38:34;2.97;;;0.80;;
64186;SDS011;50491;39.484;-8.540;2023-07-31T14:40:34;1.10;;;0.70;;
64186;SDS011;50491;39.484;-8.540;2023-07-31T14:42:36;1.60;;;0.80;;
64186;SDS011;50491;39.484;-8.540;2023-07-31T14:44:37;7.03;;;0.75;;
64186;SDS011;50491;39.484;-8.540;2023-07-31T14:46:57;4.00;;;0.70;;
64186;SDS011;50491;39.484;-8.540;2023-07-31T14:49:15;4.47;;;0.80;;
64186;SDS011;50491;39.484;-8.540;2023-07-31T14:51:16;6.22;;;0.95;;
64186;SDS011;50491;39.484;-8.540;2023-07-31T14:53:36;3.65;;;0.80;;
64186;SDS011;50491;39.484;-8.540;2023-07-31T14:58:15;2.55;;;0.80;;
64186;SDS011;50491;39.484;-8.540;2023-07-31T15:00:36;1.80;;;0.60;;
64186;SDS011;50491;39.484;-8.540;2023-07-31T15:02:37;3.50;;;0.80;;